Time;durP1;ratioP1;P1;durP2;ratioP2;P2;SDS_P1;SDS_P2;PMS_P1;PMS_P2;Temp;Humidity;BMP_temperature;BMP_pressure;BME280_temperature;BME280_humidity;BME280_pressure;Samples;Min_cycle;Max_cycle;Signal;HPM_P1;HPM_P2
2022/06/06 00:01:16;;;;;;;25.48;6.03;;;20.20;99.90;;;;;;5048983;28;20059;-70
2022/06/06 00:04:21;;;;;;;25.40;5.78;;;20.20;99.90;;;;;;5049442;28;20048;-71
2022/06/06 00:07:25;;;;;;;31.08;6.90;;;20.10;99.90;;;;;;5049893;28;20040;-70
2022/06/06 00:10:30;;;;;;;31.55;6.60;;;20.10;99.90;;;;;;5049848;28;20498;-70
2022/06/06 00:13:34;;;;;;;31.08;6.05;;;20.20;99.90;;;;;;5049278;28;20056;-70
2022/06/06 00:16:38;;;;;;;25.05;6.90;;;20.30;99.90;;;;;;5049791;28;20044;-70
2022/06/06 00:19:42;;;;;;;30.70;6.95;;;20.30;99.90;;;;;;5047159;28;20498;-70
2022/06/06 00:22:46;;;;;;;30.08;6.00;;;20.30;99.90;;;;;;5049648;28;20048;-70
2022/06/06 00:25:51;;;;;;;28.33;6.30;;;20.40;99.90;;;;;;5049783;28;20040;-70
2022/06/06 00:28:56;;;;;;;37.72;6.97;;;20.40;99.90;;;;;;5049909;28;20047;-70
2022/06/06 00:35:23;;;;;;;28.73;7.15;;;20.40;99.90;;;;;;5049569;28;20503;-70
2022/06/06 00:38:27;;;;;;;20.30;5.60;;;20.40;99.90;;;;;;5029845;28;20048;-70
2022/06/06 00:41:36;;;;;;;25.58;5.82;;;20.40;99.90;;;;;;5047315;28;20048;-70
2022/06/06 00:44:40;;;;;;;18.15;5.00;;;20.40;99.90;;;;;;5049140;28;20498;-70
2022/06/06 00:47:48;;;;;;;21.63;5.05;;;20.40;99.90;;;;;;5049036;28;20060;-70
2022/06/06 00:50:58;;;;;;;26.02;5.60;;;20.40;99.90;;;;;;5049063;28;20047;-70
2022/06/06 00:54:06;;;;;;;26.40;6.40;;;20.30;99.90;;;;;;5049116;28;20491;-70
2022/06/06 00:57:15;;;;;;;27.40;6.75;;;20.20;99.90;;;;;;5049475;28;20056;-70
2022/06/06 01:00:21;;;;;;;33.88;7.30;;;20.10;99.90;;;;;;5053001;28;20032;-70
2022/06/06 01:03:30;;;;;;;36.17;7.05;;;20.00;99.90;;;;;;5052737;28;20048;-70
2022/06/06 01:06:38;;;;;;;21.15;6.90;;;19.90;99.90;;;;;;5052564;28;20052;-70
2022/06/06 01:09:42;;;;;;;31.08;8.15;;;19.90;99.90;;;;;;5033316;28;20060;-70
2022/06/06 01:12:49;;;;;;;28.05;6.90;;;19.90;99.90;;;;;;5049666;28;20044;-70
2022/06/06 01:15:59;;;;;;;29.15;6.47;;;19.90;99.90;;;;;;5052598;28;20483;-70
2022/06/06 01:19:24;;;;;;;28.38;6.82;;;19.90;99.90;;;;;;5053530;28;20043;-70
2022/06/06 01:23:10;;;;;;;28.95;7.00;;;19.80;99.90;;;;;;5052939;28;20036;-70
2022/06/06 01:26:35;;;;;;;31.83;8.15;;;19.80;99.90;;;;;;5051696;28;20064;-70
2022/06/06 01:29:47;;;;;;;25.08;7.55;;;19.70;99.90;;;;;;5052336;28;20075;-70
2022/06/06 01:32:59;;;;;;;23.75;6.75;;;19.60;99.90;;;;;;5052629;28;20044;-70
2022/06/06 01:36:03;;;;;;;29.13;7.18;;;19.60;99.90;;;;;;5051227;28;20392;-70
2022/06/06 01:39:11;;;;;;;35.35;8.75;;;19.60;99.90;;;;;;5052081;28;20491;-70
2022/06/06 01:42:22;;;;;;;19.88;6.53;;;19.60;99.90;;;;;;5051978;28;20468;-70
2022/06/06 01:45:55;;;;;;;22.38;7.05;;;19.50;99.90;;;;;;5032373;28;20392;-70
2022/06/06 01:49:00;;;;;;;25.80;6.75;;;19.50;99.90;;;;;;5051999;28;20060;-70
2022/06/06 01:52:08;;;;;;;26.17;5.95;;;19.50;99.90;;;;;;5051470;28;20399;-70
2022/06/06 01:55:12;;;;;;;27.65;6.97;;;19.50;99.90;;;;;;5052532;28;20384;-70
2022/06/06 01:58:31;;;;;;;20.83;6.40;;;19.50;99.90;;;;;;5050064;28;20391;-70
2022/06/06 02:01:34;;;;;;;26.38;5.10;;;19.50;99.90;;;;;;5051362;28;20055;-70
2022/06/06 02:04:38;;;;;;;22.35;5.10;;;19.50;99.90;;;;;;5051925;28;20055;-70
2022/06/06 02:07:44;;;;;;;23.63;6.53;;;19.50;99.90;;;;;;5051310;28;20503;-70
2022/06/06 02:10:48;;;;;;;26.45;5.53;;;19.50;99.90;;;;;;5051056;28;20052;-70
2022/06/06 02:13:53;;;;;;;23.33;5.78;;;19.50;99.90;;;;;;5051932;28;20063;-70
2022/06/06 02:16:56;;;;;;;25.88;5.55;;;19.40;99.90;;;;;;5032107;28;20060;-70
2022/06/06 02:20:03;;;;;;;26.52;6.22;;;19.40;99.90;;;;;;5048547;28;20047;-70
2022/06/06 02:23:08;;;;;;;22.85;5.45;;;19.40;99.90;;;;;;5051383;28;20051;-70
2022/06/06 02:26:12;;;;;;;27.25;5.95;;;19.40;99.90;;;;;;5051543;28;20044;-70
2022/06/06 02:29:16;;;;;;;22.65;5.43;;;19.40;99.90;;;;;;5051255;28;20434;-70
2022/06/06 02:32:21;;;;;;;27.77;6.60;;;19.40;99.90;;;;;;5051211;28;20044;-70
2022/06/06 02:35:28;;;;;;;19.48;5.53;;;19.40;99.90;;;;;;5051532;28;20063;-70
2022/06/06 02:38:33;;;;;;;32.55;6.13;;;19.40;99.90;;;;;;5048795;28;20048;-70
2022/06/06 02:41:37;;;;;;;20.05;5.88;;;19.50;99.90;;;;;;5050497;28;20396;-70
2022/06/06 02:44:42;;;;;;;26.08;6.38;;;19.50;99.90;;;;;;5051150;28;20391;-70
2022/06/06 02:47:50;;;;;;;25.70;6.45;;;19.60;99.90;;;;;;5050066;28;20056;-70
2022/06/06 02:50:54;;;;;;;23.55;6.35;;;19.60;99.90;;;;;;5050669;28;20048;-70
2022/06/06 02:54:01;;;;;;;27.35;6.72;;;19.60;99.90;;;;;;5051275;28;20048;-70
2022/06/06 02:57:05;;;;;;;22.45;6.50;;;19.50;99.90;;;;;;5030821;28;20049;-70
2022/06/06 03:00:13;;;;;;;20.80;5.95;;;19.40;99.90;;;;;;5046269;28;20454;-70
2022/06/06 03:03:17;;;;;;;28.35;5.55;;;19.40;99.90;;;;;;5050563;28;20044;-70
2022/06/06 03:06:41;;;;;;;24.10;5.35;;;19.40;99.90;;;;;;5030619;28;20499;-70
2022/06/06 03:10:20;;;;;;;22.02;5.78;;;19.30;99.90;;;;;;5046814;28;20388;-70
2022/06/06 03:13:40;;;;;;;19.30;4.72;;;19.30;99.90;;;;;;5049892;28;20040;-70
2022/06/06 03:20:56;;;;;;;15.73;5.32;;;19.20;99.90;;;;;;5031025;28;20395;-70
2022/06/06 03:24:27;;;;;;;15.40;5.35;;;19.20;99.90;;;;;;5030770;28;20128;-70
2022/06/06 03:27:50;;;;;;;22.42;6.07;;;19.20;99.90;;;;;;5049368;28;20047;-70
2022/06/06 03:31:23;;;;;;;27.92;5.65;;;19.00;99.90;;;;;;5050076;28;20035;-70
2022/06/06 03:35:04;;;;;;;28.48;6.82;;;18.80;99.90;;;;;;5050089;28;20388;-70
2022/06/06 03:38:37;;;;;;;21.05;6.65;;;18.70;99.90;;;;;;5050353;28;20042;-70
2022/06/06 03:41:46;;;;;;;;;;;18.50;99.90;;;;;;5030989;28;20503;-70
2022/06/06 03:45:15;;;;;;;26.10;6.82;;;18.40;99.90;;;;;;5045200;28;19920;-70
2022/06/06 03:48:43;;;;;;;26.65;6.75;;;18.40;99.90;;;;;;5048426;28;20063;-70
2022/06/06 03:52:02;;;;;;;25.50;6.82;;;18.50;99.90;;;;;;5050339;28;20518;-70
2022/06/06 03:55:27;;;;;;;29.65;6.82;;;18.50;99.90;;;;;;5030537;28;20040;-70
2022/06/06 03:58:33;;;;;;;20.92;5.88;;;18.60;99.90;;;;;;5046917;28;20392;-70
2022/06/06 04:01:39;;;;;;;36.80;6.78;;;18.60;99.90;;;;;;5049593;28;20081;-71
2022/06/06 04:04:45;;;;;;;25.90;6.75;;;18.70;99.90;;;;;;5050549;28;20048;-70
2022/06/06 04:07:49;;;;;;;23.75;5.90;;;18.90;99.90;;;;;;5049173;28;20311;-70
2022/06/06 04:11:08;;;;;;;18.27;6.47;;;18.90;99.90;;;;;;5049676;28;20048;-70
2022/06/06 04:14:21;;;;;;;22.27;6.70;;;19.00;99.90;;;;;;5050299;28;20072;-70
2022/06/06 04:17:43;;;;;;;21.27;7.35;;;19.20;99.90;;;;;;5049352;28;20052;-71
2022/06/06 04:21:15;;;;;;;27.45;7.80;;;19.20;99.90;;;;;;5049601;28;20064;-70
2022/06/06 04:24:41;;;;;;;23.97;6.33;;;19.30;99.90;;;;;;5048437;28;20507;-70
2022/06/06 04:27:48;;;;;;;29.20;6.55;;;19.50;99.90;;;;;;5049665;28;20306;-70
2022/06/06 04:31:10;;;;;;;24.88;7.15;;;20.40;99.90;;;;;;5049827;28;20056;-71
2022/06/06 04:34:37;;;;;;;26.00;6.15;;;22.00;99.90;;;;;;5052476;28;20051;-70
2022/06/06 04:37:56;;;;;;;20.73;5.57;;;23.40;99.90;;;;;;5052642;28;20071;-71
2022/06/06 04:41:18;;;;;;;32.92;7.05;;;24.80;99.90;;;;;;5053565;28;20159;-71
2022/06/06 04:45:01;;;;;;;34.97;6.75;;;26.00;99.90;;;;;;5033940;28;20491;-71
2022/06/06 04:48:06;;;;;;;29.33;7.38;;;27.10;99.90;;;;;;5040957;28;20043;-71
2022/06/06 04:51:12;;;;;;;23.10;5.35;;;27.80;99.90;;;;;;5053029;28;20056;-71
2022/06/06 04:54:21;;;;;;;27.23;6.30;;;28.60;99.90;;;;;;5052846;28;20040;-71
2022/06/06 04:57:27;;;;;;;26.05;6.22;;;29.20;99.90;;;;;;5050378;28;20056;-70
2022/06/06 05:00:42;;;;;;;27.27;6.32;;;29.70;99.90;;;;;;5052364;28;20080;-70
2022/06/06 05:03:45;;;;;;;21.83;5.35;;;30.10;99.90;;;;;;5053074;28;20047;-71
2022/06/06 05:07:13;;;;;;;23.05;5.50;;;30.60;99.50;;;;;;5052589;28;20051;-71
2022/06/06 05:10:37;;;;;;;30.48;6.13;;;30.80;99.50;;;;;;5051840;28;20044;-71
2022/06/06 05:13:49;;;;;;;18.10;4.63;;;31.10;99.00;;;;;;5052849;28;20048;-71
2022/06/06 05:17:09;;;;;;;24.65;5.78;;;31.30;98.80;;;;;;5053010;28;20048;-71
2022/06/06 05:20:44;;;;;;;29.20;5.28;;;31.90;98.10;;;;;;5032890;28;20044;-71
2022/06/06 05:24:18;;;;;;;32.88;6.90;;;32.30;97.40;;;;;;5051335;28;20043;-71
2022/06/06 05:27:42;;;;;;;24.13;5.65;;;32.50;96.90;;;;;;5051963;28;20035;-71
2022/06/06 05:30:55;;;;;;;23.70;5.28;;;32.60;96.70;;;;;;5052938;28;20043;-71
2022/06/06 05:34:10;;;;;;;27.05;5.25;;;32.80;96.20;;;;;;5032993;28;20068;-70
2022/06/06 05:37:52;;;;;;;24.48;5.65;;;32.70;96.20;;;;;;5050727;28;20059;-71
2022/06/06 05:41:12;;;;;;;22.85;5.35;;;33.20;95.80;;;;;;5051507;28;20052;-71
2022/06/06 05:44:48;;;;;;;19.10;4.28;;;33.40;95.40;;;;;;5051012;28;20040;-71
2022/06/06 05:47:58;;;;;;;33.22;5.38;;;33.60;95.10;;;;;;5031090;28;20069;-71
2022/06/06 05:51:14;;;;;;;;;;;33.60;95.00;;;;;;5049301;28;20036;-71
2022/06/06 05:54:42;;;;;;;22.58;5.45;;;34.00;94.70;;;;;;5051859;28;19909;-71
2022/06/06 05:58:08;;;;;;;22.80;5.03;;;34.40;94.50;;;;;;5051669;28;20048;-71
2022/06/06 06:01:28;;;;;;;20.48;5.00;;;34.90;93.70;;;;;;5052537;28;20052;-71
2022/06/06 06:04:56;;;;;;;31.17;5.78;;;34.60;93.20;;;;;;5052543;28;20052;-71
2022/06/06 06:08:03;;;;;;;27.52;5.18;;;34.40;93.50;;;;;;5051095;28;20036;-71
2022/06/06 06:11:32;;;;;;;17.38;4.82;;;33.50;93.40;;;;;;5051962;28;20040;-71
2022/06/06 06:15:05;;;;;;;20.25;4.88;;;30.80;94.80;;;;;;5052568;28;20051;-70
2022/06/06 06:18:26;;;;;;;19.15;4.22;;;28.60;97.70;;;;;;5051259;28;20411;-70
2022/06/06 06:21:37;;;;;;;21.63;3.92;;;29.40;97.90;;;;;;5050148;28;20052;-71
2022/06/06 06:24:42;;;;;;;;;;;31.20;96.70;;;;;;5051564;28;20044;-71
2022/06/06 06:27:47;;;;;;;20.17;4.35;;;32.50;95.40;;;;;;5031081;28;19939;-71
2022/06/06 06:31:08;;;;;;;16.05;3.90;;;33.30;94.50;;;;;;5048737;28;20395;-70
2022/06/06 06:34:39;;;;;;;17.13;5.38;;;33.50;94.00;;;;;;5051060;28;20091;-71
2022/06/06 06:37:55;;;;;;;22.15;4.63;;;33.80;93.50;;;;;;5051498;28;20052;-72
2022/06/06 06:41:10;;;;;;;20.65;4.43;;;34.10;93.30;;;;;;5051761;28;20052;-71
2022/06/06 06:44:27;;;;;;;21.15;4.43;;;34.30;93.00;;;;;;5050817;28;20044;-71
2022/06/06 06:47:34;;;;;;;19.15;4.32;;;34.50;92.70;;;;;;5049622;28;20498;-71
2022/06/06 06:50:49;;;;;;;18.40;4.05;;;35.00;92.30;;;;;;5050574;28;20044;-71
2022/06/06 06:54:12;;;;;;;20.45;5.00;;;35.50;91.60;;;;;;5047965;28;20044;-71
2022/06/06 06:57:31;;;;;;;21.02;4.25;;;35.00;91.40;;;;;;5049641;28;20388;-70
2022/06/06 07:00:52;;;;;;;19.93;5.60;;;35.00;91.90;;;;;;5050930;28;20048;-70
2022/06/06 07:11:32;;;;;;;18.23;4.88;;;34.40;92.00;;;;;;5050262;28;20407;-70
2022/06/06 07:14:49;;;;;;;20.98;4.53;;;34.60;91.60;;;;;;5050727;28;20048;-69
2022/06/06 07:17:58;;;;;;;18.83;3.83;;;35.10;91.50;;;;;;5050974;28;20411;-70
2022/06/06 07:21:07;;;;;;;24.45;4.95;;;34.90;91.70;;;;;;5050526;28;20063;-70
2022/06/06 07:24:15;;;;;;;21.95;4.72;;;35.30;91.20;;;;;;5037713;28;20052;-70
2022/06/06 07:27:19;;;;;;;17.70;4.25;;;36.00;91.00;;;;;;5045959;28;20040;-69
2022/06/06 07:30:28;;;;;;;15.70;3.88;;;36.60;90.20;;;;;;5047137;28;20048;-70
2022/06/06 07:33:50;;;;;;;17.92;3.60;;;36.90;90.10;;;;;;5044854;28;20044;-70
2022/06/06 07:37:34;;;;;;;17.02;3.70;;;37.70;88.70;;;;;;5047823;28;20040;-71
2022/06/06 07:41:06;;;;;;;19.70;4.70;;;37.80;86.50;;;;;;5044444;28;20059;-70
2022/06/06 07:44:25;;;;;;;15.43;3.60;;;38.30;86.50;;;;;;5044018;28;20364;-70
2022/06/06 07:47:56;;;;;;;18.27;3.80;;;38.10;85.30;;;;;;5044426;28;20742;-71
2022/06/06 07:51:09;;;;;;;20.23;4.32;;;38.30;84.80;;;;;;5048170;28;20048;-70
2022/06/06 07:54:16;;;;;;;14.65;3.95;;;38.30;84.30;;;;;;5040069;28;20036;-70
2022/06/06 07:57:48;;;;;;;13.32;3.90;;;38.80;83.40;;;;;;5047568;28;20044;-70
2022/06/06 08:01:15;;;;;;;16.30;3.92;;;39.40;81.90;;;;;;5046539;28;20048;-70
2022/06/06 08:04:23;;;;;;;17.70;3.60;;;39.70;81.40;;;;;;5045990;28;20503;-70
2022/06/06 08:07:53;;;;;;;14.80;3.78;;;40.10;80.90;;;;;;5048719;28;20491;-69
2022/06/06 08:11:09;;;;;;;17.93;4.17;;;40.10;80.40;;;;;;5049273;28;20036;-71
2022/06/06 08:14:27;;;;;;;15.73;3.72;;;39.20;80.70;;;;;;5049333;28;20045;-71
2022/06/06 08:18:08;;;;;;;24.52;4.25;;;38.40;82.20;;;;;;5051914;28;20044;-70
2022/06/06 08:21:35;;;;;;;13.55;3.55;;;39.30;82.40;;;;;;5049213;28;20036;-71
2022/06/06 08:24:42;;;;;;;14.63;4.43;;;40.20;80.30;;;;;;5048932;28;20502;-70
2022/06/06 08:27:51;;;;;;;15.98;3.80;;;40.50;80.10;;;;;;5050943;28;20502;-70
2022/06/06 08:30:54;;;;;;;14.07;3.45;;;40.30;79.00;;;;;;5049684;28;20048;-70
2022/06/06 08:33:59;;;;;;;11.23;3.90;;;40.40;80.00;;;;;;5050969;28;20044;-71
2022/06/06 08:37:05;;;;;;;14.52;4.22;;;40.80;79.00;;;;;;5052490;28;20040;-70
2022/06/06 08:40:53;;;;;;;15.82;4.78;;;40.90;79.00;;;;;;5041970;28;20044;-69
2022/06/06 08:44:18;;;;;;;15.80;4.13;;;40.30;79.70;;;;;;5063306;28;20039;-70
2022/06/06 08:47:44;;;;;;;14.00;3.42;;;40.40;79.10;;;;;;5071985;28;20039;-70
2022/06/06 08:51:32;;;;;;;14.70;3.63;;;40.00;79.30;;;;;;5072942;28;20383;-70
2022/06/06 08:54:55;;;;;;;18.40;4.00;;;40.90;78.00;;;;;;5078032;28;20470;-71
2022/06/06 08:58:25;;;;;;;14.07;3.40;;;41.10;76.80;;;;;;5071916;28;20059;-70
2022/06/06 09:01:44;;;;;;;14.13;3.60;;;40.50;77.50;;;;;;5069436;28;20371;-70
2022/06/06 09:05:36;;;;;;;12.73;3.63;;;40.90;78.00;;;;;;5071352;28;20069;-70
2022/06/06 09:08:44;;;;;;;12.60;3.63;;;42.00;76.20;;;;;;5066010;28;20051;-70
2022/06/06 09:12:33;;;;;;;13.88;3.72;;;42.80;75.10;;;;;;5064490;28;20040;-71
2022/06/06 09:16:00;;;;;;;14.25;3.90;;;43.60;73.50;;;;;;5051979;28;20650;-70
2022/06/06 09:19:16;;;;;;;15.90;3.65;;;43.30;73.90;;;;;;5069112;28;20463;-70
2022/06/06 09:22:20;;;;;;;10.98;3.75;;;43.50;74.00;;;;;;5058602;28;20116;-69
2022/06/06 09:25:47;;;;;;;11.48;3.38;;;44.20;73.50;;;;;;5073391;28;20068;-68
2022/06/06 09:29:01;;;;;;;9.52;3.63;;;42.50;73.10;;;;;;5074821;28;20056;-70
2022/06/06 09:32:19;;;;;;;9.93;3.97;;;41.70;74.50;;;;;;5079893;28;20040;-70
2022/06/06 09:35:48;;;;;;;12.45;4.43;;;40.60;75.00;;;;;;5069060;28;20048;-69
2022/06/06 09:39:13;;;;;;;11.75;3.83;;;40.40;75.80;;;;;;5064952;28;20044;-69
2022/06/06 09:42:40;;;;;;;18.10;4.15;;;38.40;77.10;;;;;;5071866;28;20375;-69
2022/06/06 09:45:54;;;;;;;19.25;4.47;;;37.30;80.50;;;;;;5069863;28;20043;-69
2022/06/06 09:49:32;;;;;;;13.05;4.20;;;37.90;80.20;;;;;;5068490;28;20039;-70
2022/06/06 09:52:49;;;;;;;12.73;4.40;;;39.00;78.90;;;;;;5071893;28;20114;-69
2022/06/06 10:00:39;;;;;;;16.67;4.60;;;35.70;81.10;;;;;;5069520;28;20072;-71
2022/06/06 10:03:56;;;;;;;15.52;4.32;;;36.40;82.20;;;;;;5068138;28;20067;-69
2022/06/06 10:07:00;;;;;;;17.48;5.43;;;37.00;81.60;;;;;;5069705;28;20387;-69
2022/06/06 10:10:23;;;;;;;17.63;4.90;;;37.20;80.80;;;;;;5075623;28;20055;-69
2022/06/06 10:13:41;;;;;;;17.33;4.28;;;38.10;80.30;;;;;;5078676;28;20035;-69
2022/06/06 10:17:11;;;;;;;13.35;4.07;;;40.30;77.80;;;;;;5065124;28;20371;-70
2022/06/06 10:20:59;;;;;;;15.65;4.70;;;42.50;75.70;;;;;;5070826;28;20039;-71
2022/06/06 10:24:21;;;;;;;13.02;3.80;;;44.10;73.80;;;;;;4987292;28;20507;-72
2022/06/06 10:27:44;;;;;;;11.23;4.15;;;44.40;72.70;;;;;;5006074;28;20057;-71
2022/06/06 10:31:20;;;;;;;12.60;4.07;;;44.40;71.90;;;;;;5068706;28;20051;-71
2022/06/06 10:34:52;;;;;;;12.68;4.63;;;36.30;75.80;;;;;;5064198;28;20848;-69
2022/06/06 10:38:19;;;;;;;13.75;4.45;;;35.80;82.20;;;;;;5068566;28;20039;-71
2022/06/06 10:42:01;;;;;;;15.38;4.05;;;38.80;78.20;;;;;;5068250;28;20506;-70
2022/06/06 10:45:13;;;;;;;17.10;4.43;;;40.90;76.40;;;;;;5069301;28;20051;-71
2022/06/06 10:48:26;;;;;;;12.23;4.15;;;37.70;76.40;;;;;;5060747;28;20048;-69
2022/06/06 10:51:37;;;;;;;11.65;4.15;;;34.30;82.50;;;;;;5064345;28;20039;-70
2022/06/06 10:55:14;;;;;;;12.20;3.55;;;37.10;79.30;;;;;;5071269;28;20047;-71
2022/06/06 10:58:49;;;;;;;11.70;4.10;;;38.70;79.20;;;;;;5049012;28;20497;-71
2022/06/06 11:02:31;;;;;;;10.52;4.55;;;40.20;75.80;;;;;;5066958;28;20162;-70
2022/06/06 11:06:27;;;;;;;13.52;4.38;;;39.60;76.60;;;;;;5075652;28;20497;-71
2022/06/06 11:09:58;;;;;;;11.18;3.83;;;38.70;76.20;;;;;;5023565;28;20040;-71
2022/06/06 11:13:19;;;;;;;12.55;4.13;;;40.80;74.40;;;;;;5024102;28;20032;-71
2022/06/06 11:17:02;;;;;;;11.48;3.85;;;41.70;73.50;;;;;;5063727;28;20051;-71
2022/06/06 11:20:44;;;;;;;9.30;3.60;;;41.60;74.00;;;;;;5065173;28;20043;-70
2022/06/06 11:24:19;;;;;;;11.23;3.85;;;42.00;72.70;;;;;;5066092;28;20044;-69
2022/06/06 11:27:57;;;;;;;13.48;3.47;;;38.80;75.70;;;;;;5067385;28;20047;-70
2022/06/06 11:31:19;;;;;;;13.77;3.83;;;40.10;73.90;;;;;;5066281;28;20044;-70
2022/06/06 11:35:06;;;;;;;13.57;4.47;;;36.80;77.00;;;;;;5061170;28;20056;-70
2022/06/06 11:38:31;;;;;;;12.68;3.97;;;36.50;77.90;;;;;;5062495;28;20051;-70
2022/06/06 11:42:04;;;;;;;16.45;5.20;;;35.60;80.00;;;;;;5062741;28;20048;-70
2022/06/06 11:45:11;;;;;;;16.90;4.70;;;35.70;80.40;;;;;;5066822;28;20047;-69
2022/06/06 11:48:53;;;;;;;14.75;4.40;;;37.00;79.90;;;;;;5069776;28;20035;-69
2022/06/06 11:51:57;;;;;;;11.25;4.32;;;35.70;79.00;;;;;;5065030;28;20509;-72
2022/06/06 11:55:26;;;;;;;10.75;3.97;;;37.00;78.20;;;;;;5062750;28;20494;-69
2022/06/06 11:58:48;;;;;;;12.13;3.47;;;38.20;77.90;;;;;;5067391;28;20059;-69
2022/06/06 12:02:06;;;;;;;15.63;4.18;;;39.00;76.30;;;;;;5072581;28;20508;-69
2022/06/06 12:05:35;;;;;;;13.38;3.80;;;38.30;77.20;;;;;;5066348;28;20059;-71
2022/06/06 12:09:15;;;;;;;15.27;4.03;;;38.50;76.60;;;;;;5065971;28;20040;-70
2022/06/06 12:12:31;;;;;;;15.77;4.45;;;39.50;75.70;;;;;;5051071;28;20510;-72
2022/06/06 12:16:00;;;;;;;15.90;4.63;;;40.20;73.80;;;;;;5058842;28;20047;-71
2022/06/06 12:19:37;;;;;;;10.13;3.92;;;35.20;75.10;;;;;;5067534;28;20040;-71
2022/06/06 12:22:49;;;;;;;13.63;4.25;;;35.40;80.00;;;;;;5066157;28;20102;-71
2022/06/06 12:26:07;;;;;;;12.18;4.55;;;35.90;80.50;;;;;;5065249;28;20039;-70
2022/06/06 12:29:33;;;;;;;11.43;4.18;;;37.00;79.60;;;;;;5067685;28;20063;-70
2022/06/06 12:33:03;;;;;;;13.73;4.32;;;36.90;77.80;;;;;;5061324;28;20079;-69
2022/06/06 12:36:31;;;;;;;16.77;4.40;;;37.00;78.70;;;;;;5077886;28;20039;-71
2022/06/06 12:40:06;;;;;;;14.52;4.88;;;35.10;79.00;;;;;;5069175;28;20040;-71
2022/06/06 12:43:43;;;;;;;12.98;3.83;;;34.00;81.60;;;;;;5067018;28;20059;-71
2022/06/06 12:47:23;;;;;;;14.52;4.68;;;34.10;81.90;;;;;;5065936;28;20043;-71
2022/06/06 12:50:44;;;;;;;13.43;4.55;;;31.90;83.50;;;;;;5075024;28;20044;-72
2022/06/06 12:54:09;;;;;;;13.50;4.87;;;34.10;81.90;;;;;;5064076;28;20036;-71
2022/06/06 12:57:16;;;;;;;14.48;4.45;;;35.30;80.60;;;;;;5067638;28;20621;-71
2022/06/06 13:03:58;;;;;;;13.40;3.83;;;36.20;80.10;;;;;;5067579;28;20043;-71
2022/06/06 13:07:16;;;;;;;18.40;4.20;;;36.40;80.70;;;;;;5070207;28;20667;-72
2022/06/06 13:10:54;;;;;;;11.93;3.92;;;36.50;78.60;;;;;;5072417;28;20394;-71
2022/06/06 13:14:19;;;;;;;15.02;4.22;;;36.70;79.40;;;;;;5072131;28;20043;-72
2022/06/06 13:18:00;;;;;;;15.63;4.40;;;37.30;77.80;;;;;;5061904;28;20056;-70
2022/06/06 13:21:37;;;;;;;17.88;5.45;;;37.40;77.20;;;;;;5069315;28;20044;-71
2022/06/06 13:25:07;;;;;;;7.70;3.35;;;35.90;78.40;;;;;;5068155;28;20052;-69
2022/06/06 13:28:14;;;;;;;12.18;4.03;;;36.10;79.20;;;;;;5069416;28;20059;-72
2022/06/06 13:31:51;;;;;;;9.75;3.60;;;36.10;79.00;;;;;;5066560;28;20040;-71
2022/06/06 13:35:28;;;;;;;12.05;4.47;;;34.30;80.30;;;;;;5062135;28;20047;-70
2022/06/06 13:38:42;;;;;;;11.23;4.10;;;34.40;82.30;;;;;;5067170;28;20383;-71
2022/06/06 13:41:57;;;;;;;15.60;3.63;;;35.00;81.30;;;;;;5067893;28;20395;-72
2022/06/06 13:45:31;;;;;;;16.90;4.05;;;35.60;79.80;;;;;;5069515;28;20048;-71
2022/06/06 13:48:44;;;;;;;17.77;4.20;;;35.90;79.50;;;;;;5065616;28;20399;-71
2022/06/06 13:51:55;;;;;;;16.13;4.10;;;36.10;78.00;;;;;;5071044;28;20502;-71
2022/06/06 13:55:29;;;;;;;12.35;3.63;;;36.00;77.90;;;;;;5067206;28;20047;-71
2022/06/06 13:58:42;;;;;;;11.40;4.22;;;35.60;80.00;;;;;;5068827;28;20521;-72
2022/06/06 14:02:14;;;;;;;8.30;3.58;;;35.70;78.40;;;;;;5069243;28;21532;-71
2022/06/06 14:05:28;;;;;;;7.95;3.92;;;35.50;79.00;;;;;;5068498;28;20063;-73
2022/06/06 14:08:56;;;;;;;12.48;4.43;;;35.20;79.30;;;;;;5068440;28;20390;-72
2022/06/06 14:12:19;;;;;;;13.80;4.15;;;35.00;80.00;;;;;;5068332;28;20390;-71
2022/06/06 14:15:25;;;;;;;12.02;3.63;;;34.90;80.20;;;;;;5067055;28;20044;-73
2022/06/06 14:18:35;;;;;;;12.13;3.90;;;34.80;80.00;;;;;;5067904;28;20055;-72
2022/06/06 14:21:47;;;;;;;10.63;3.30;;;34.90;81.60;;;;;;5066848;28;20506;-71
2022/06/06 14:24:54;;;;;;;16.30;3.90;;;35.30;80.10;;;;;;5068467;28;20032;-72
2022/06/06 14:28:24;;;;;;;9.30;3.67;;;35.30;78.70;;;;;;5068776;28;20047;-70
2022/06/06 14:31:42;;;;;;;8.20;3.28;;;34.90;78.70;;;;;;5063007;28;20399;-71
2022/06/06 14:34:49;;;;;;;7.80;3.55;;;34.30;79.70;;;;;;5066010;28;20036;-71
2022/06/06 14:38:15;;;;;;;13.48;3.65;;;33.90;80.50;;;;;;5065386;28;20052;-70
2022/06/06 14:41:24;;;;;;;15.60;4.53;;;33.30;80.00;;;;;;5067553;28;20051;-71
2022/06/06 14:44:37;;;;;;;14.73;4.25;;;32.30;81.40;;;;;;5068089;28;20546;-71
2022/06/06 14:47:54;;;;;;;12.52;4.72;;;31.40;82.50;;;;;;5064123;28;20059;-70
2022/06/06 14:51:01;;;;;;;13.30;4.13;;;32.00;83.30;;;;;;5067212;28;20035;-71
2022/06/06 14:54:10;;;;;;;9.07;3.33;;;32.20;82.50;;;;;;5067288;28;20036;-70
2022/06/06 14:57:15;;;;;;;11.82;3.83;;;31.60;83.50;;;;;;5066477;28;20540;-70
2022/06/06 15:00:50;;;;;;;14.27;3.95;;;31.20;82.60;;;;;;5068609;28;20043;-70
2022/06/06 15:04:00;;;;;;;11.35;3.95;;;30.60;83.60;;;;;;5068275;28;20568;-70
2022/06/06 15:07:04;;;;;;;14.15;3.92;;;30.00;85.10;;;;;;5069396;28;20043;-71
2022/06/06 15:10:24;;;;;;;16.73;4.07;;;30.50;86.40;;;;;;5068840;28;20051;-71
2022/06/06 15:13:31;;;;;;;13.53;3.83;;;31.30;84.80;;;;;;5069705;28;20086;-71
2022/06/06 15:16:36;;;;;;;6.35;3.60;;;31.80;83.90;;;;;;5066695;28;20289;-71
2022/06/06 15:19:43;;;;;;;16.13;3.90;;;32.10;83.50;;;;;;5069064;28;20047;-71
2022/06/06 15:22:48;;;;;;;11.80;3.83;;;32.20;84.40;;;;;;5069275;28;20040;-70
2022/06/06 15:25:59;;;;;;;12.05;3.95;;;32.10;84.40;;;;;;5056217;28;20051;-71
2022/06/06 15:29:40;;;;;;;13.95;3.83;;;32.00;84.30;;;;;;5067132;28;20039;-71
2022/06/06 15:32:53;;;;;;;14.33;3.83;;;31.90;83.60;;;;;;5068912;28;20051;-71
2022/06/06 15:36:15;;;;;;;11.65;3.67;;;31.70;84.30;;;;;;5066871;28;20039;-71
2022/06/06 15:39:46;;;;;;;14.00;3.80;;;31.60;84.60;;;;;;5063655;28;20039;-71
2022/06/06 15:43:14;;;;;;;12.53;4.27;;;31.70;85.90;;;;;;5069354;28;20051;-71
2022/06/06 15:46:55;;;;;;;11.82;3.92;;;31.10;84.80;;;;;;5068351;28;20051;-71
2022/06/06 15:50:20;;;;;;;12.73;3.97;;;31.30;85.50;;;;;;5060900;28;20043;-71
2022/06/06 15:53:36;;;;;;;12.60;3.90;;;31.00;84.80;;;;;;5058837;28;20625;-71
2022/06/06 15:57:13;;;;;;;16.70;3.90;;;31.30;86.20;;;;;;5050201;28;20040;-71
2022/06/06 16:00:38;;;;;;;13.02;3.70;;;31.30;86.10;;;;;;5052649;28;20102;-71
2022/06/06 16:04:04;;;;;;;13.48;3.65;;;31.30;85.50;;;;;;5070016;28;20063;-71
2022/06/06 16:07:29;;;;;;;11.95;4.20;;;31.20;85.50;;;;;;5058526;28;20039;-70
2022/06/06 16:10:57;;;;;;;13.43;4.05;;;31.20;85.60;;;;;;5056358;28;20052;-70
2022/06/06 16:14:13;;;;;;;12.65;3.47;;;31.00;84.40;;;;;;5069523;28;20043;-71
2022/06/06 16:17:47;;;;;;;17.95;4.25;;;30.90;84.30;;;;;;5067868;28;20043;-71
2022/06/06 16:21:00;;;;;;;8.35;3.22;;;30.60;84.10;;;;;;5068623;28;20048;-71
2022/06/06 16:24:56;;;;;;;10.63;3.38;;;30.40;85.10;;;;;;5069381;28;20043;-71
2022/06/06 16:28:12;;;;;;;22.30;4.40;;;29.90;84.80;;;;;;5068883;28;20043;-71
2022/06/06 16:31:31;;;;;;;9.38;3.22;;;29.80;86.10;;;;;;5072198;28;20048;-71
2022/06/06 16:34:38;;;;;;;9.52;3.60;;;29.70;86.40;;;;;;5072535;28;20039;-70
2022/06/06 16:38:04;;;;;;;11.27;3.72;;;30.10;86.30;;;;;;5072646;28;20039;-71
2022/06/06 16:41:16;;;;;;;10.07;3.65;;;30.50;84.90;;;;;;5072709;28;20047;-71
2022/06/06 16:48:00;;;;;;;14.05;4.05;;;30.90;84.40;;;;;;5072315;28;19915;-71
2022/06/06 16:51:34;;;;;;;12.95;3.78;;;30.80;83.80;;;;;;5072958;28;20072;-70
2022/06/06 16:54:54;;;;;;;8.32;3.42;;;30.60;82.70;;;;;;5053133;28;20236;-71
2022/06/06 16:57:58;;;;;;;11.63;3.00;;;30.30;83.70;;;;;;5068698;28;20051;-71
2022/06/06 17:01:24;;;;;;;10.88;2.88;;;30.10;84.90;;;;;;5072254;28;20044;-71
2022/06/06 17:04:40;;;;;;;12.93;3.53;;;29.60;84.10;;;;;;5073015;28;20067;-71
2022/06/06 17:07:56;;;;;;;8.65;3.20;;;28.90;84.50;;;;;;5071672;28;20051;-71
2022/06/06 17:11:08;;;;;;;9.65;3.28;;;28.70;85.40;;;;;;5071756;28;20514;-70
2022/06/06 17:14:14;;;;;;;14.55;3.55;;;28.70;85.80;;;;;;5072499;28;20059;-71
2022/06/06 17:17:23;;;;;;;8.63;3.10;;;28.90;86.40;;;;;;5072234;28;20542;-71
2022/06/06 17:20:34;;;;;;;11.18;3.30;;;28.90;87.20;;;;;;5071826;28;20122;-71
2022/06/06 17:23:53;;;;;;;11.02;3.80;;;28.90;88.10;;;;;;5071808;28;20039;-71
2022/06/06 17:27:01;;;;;;;12.02;3.95;;;28.80;88.10;;;;;;5071800;28;20051;-71
2022/06/06 17:30:20;;;;;;;8.05;3.20;;;28.70;88.90;;;;;;5069905;28;20049;-71